SDG090 EICK-LICC
Flight info
| Callsign | SDG090 |
|---|---|
| Flight time | 3h 10m |
| Altitude | 33000 |
| Route | EPERO CK004 ERTER CARBONARA PAL |
| Aircraft | A321/M-L/C |
Departure
| Time | 2026-05-06 12:57 |
|---|---|
| Airport | Cork International Airport (EICK) |
Arrival
| Time | 2026-05-06 16:08 |
|---|---|
| Airport | Catania-Fontanarossa Airport (LICC) |
| Time | Latitude | Longitude | Altitude | Speed | Heading |
|---|---|---|---|---|---|
| 2026-05-06 12:49 | 51.84927 | -8.49195 | 511 ft | 3 kts | 115° |
| 2026-05-06 12:49 | 51.84944 | -8.49219 | 510 ft | 2 kts | 163° |
| 2026-05-06 12:49 | 51.84945 | -8.49220 | 509 ft | 0 kts | 165° |
| 2026-05-06 12:51 | 51.84944 | -8.49219 | 509 ft | 0 kts | 165° |
| 2026-05-06 12:52 | 51.84928 | -8.49214 | 510 ft | 4 kts | 169° |
| 2026-05-06 12:52 | 51.84882 | -8.49210 | 509 ft | 9 kts | 186° |
| 2026-05-06 12:52 | 51.84800 | -8.49209 | 507 ft | 14 kts | 167° |
| 2026-05-06 12:52 | 51.84704 | -8.49168 | 505 ft | 12 kts | 160° |
| 2026-05-06 12:53 | 51.84615 | -8.49116 | 503 ft | 14 kts | 160° |
| 2026-05-06 12:53 | 51.84517 | -8.49058 | 500 ft | 10 kts | 160° |
| 2026-05-06 12:53 | 51.84460 | -8.49025 | 498 ft | 10 kts | 160° |
| 2026-05-06 12:53 | 51.84385 | -8.48988 | 496 ft | 12 kts | 184° |
| 2026-05-06 12:54 | 51.84317 | -8.49101 | 491 ft | 14 kts | 243° |
| 2026-05-06 12:54 | 51.84287 | -8.49196 | 489 ft | 2 kts | 217° |
| 2026-05-06 12:54 | 51.84221 | -8.49163 | 486 ft | 17 kts | 158° |
| 2026-05-06 12:54 | 51.84094 | -8.49083 | 481 ft | 21 kts | 160° |
| 2026-05-06 12:55 | 51.83936 | -8.48993 | 476 ft | 26 kts | 161° |
| 2026-05-06 12:55 | 51.83759 | -8.48890 | 472 ft | 27 kts | 160° |
| 2026-05-06 12:55 | 51.83576 | -8.48785 | 471 ft | 27 kts | 160° |
| 2026-05-06 12:55 | 51.83409 | -8.48684 | 471 ft | 17 kts | 160° |
| 2026-05-06 12:56 | 51.83313 | -8.48599 | 470 ft | 12 kts | 127° |
| 2026-05-06 12:56 | 51.83254 | -8.48548 | 469 ft | 10 kts | 223° |
| 2026-05-06 12:56 | 51.83281 | -8.48615 | 470 ft | 0 kts | 341° |
| 2026-05-06 12:56 | 51.83282 | -8.48615 | 470 ft | 0 kts | 341° |
| 2026-05-06 12:57 | 51.83485 | -8.48733 | 471 ft | 68 kts | 340° |
| 2026-05-06 12:57 | 51.84168 | -8.49145 | 484 ft | 139 kts | 340° |
| 2026-05-06 12:57 | 51.85231 | -8.49781 | 710 ft | 177 kts | 340° |
| 2026-05-06 12:57 | 51.86364 | -8.50283 | 1427 ft | 168 kts | 346° |
| 2026-05-06 12:58 | 51.87494 | -8.50796 | 1973 ft | 169 kts | 342° |
| 2026-05-06 12:58 | 51.88615 | -8.51376 | 2445 ft | 177 kts | 344° |
| 2026-05-06 12:58 | 51.89884 | -8.51830 | 2815 ft | 194 kts | 354° |
| 2026-05-06 12:58 | 51.91232 | -8.51534 | 2978 ft | 203 kts | 26° |
| 2026-05-06 12:59 | 51.92240 | -8.49909 | 2666 ft | 214 kts | 69° |
| 2026-05-06 12:59 | 51.92292 | -8.47365 | 2233 ft | 258 kts | 110° |
| 2026-05-06 12:59 | 51.91248 | -8.44807 | 2512 ft | 279 kts | 131° |
| 2026-05-06 12:59 | 51.90051 | -8.42442 | 3567 ft | 271 kts | 127° |
| 2026-05-06 13:00 | 51.89005 | -8.39985 | 4579 ft | 265 kts | 122° |
| 2026-05-06 13:00 | 51.88075 | -8.37416 | 5340 ft | 268 kts | 118° |
| 2026-05-06 13:00 | 51.87194 | -8.34741 | 6065 ft | 272 kts | 117° |
| 2026-05-06 13:00 | 51.86335 | -8.32015 | 6768 ft | 276 kts | 116° |
| 2026-05-06 13:01 | 51.85478 | -8.29252 | 7432 ft | 279 kts | 115° |
| 2026-05-06 13:01 | 51.84506 | -8.26501 | 7851 ft | 283 kts | 124° |
| 2026-05-06 13:01 | 51.83276 | -8.24023 | 8036 ft | 285 kts | 132° |
| 2026-05-06 13:01 | 51.81891 | -8.21673 | 8393 ft | 292 kts | 134° |
| 2026-05-06 13:02 | 51.80481 | -8.19355 | 9198 ft | 290 kts | 134° |
| 2026-05-06 13:02 | 51.79078 | -8.17039 | 9877 ft | 292 kts | 134° |
| 2026-05-06 13:02 | 51.77658 | -8.14680 | 10449 ft | 298 kts | 134° |
| 2026-05-06 13:02 | 51.76165 | -8.12194 | 10762 ft | 314 kts | 133° |
| 2026-05-06 13:03 | 51.74624 | -8.09624 | 11050 ft | 329 kts | 134° |
| 2026-05-06 13:03 | 51.72851 | -8.07210 | 11351 ft | 343 kts | 150° |
| 2026-05-06 13:03 | 51.70544 | -8.05912 | 11609 ft | 356 kts | 172° |
| 2026-05-06 13:03 | 51.68053 | -8.05928 | 12001 ft | 362 kts | 184° |
| 2026-05-06 13:04 | 51.65522 | -8.06057 | 12531 ft | 366 kts | 181° |
| 2026-05-06 13:04 | 51.62964 | -8.06047 | 13090 ft | 368 kts | 180° |
| 2026-05-06 13:04 | 51.60410 | -8.06024 | 13633 ft | 371 kts | 180° |
| 2026-05-06 13:04 | 51.57813 | -8.05681 | 14128 ft | 376 kts | 167° |
| 2026-05-06 13:05 | 51.55419 | -8.03918 | 14636 ft | 380 kts | 145° |
| 2026-05-06 13:05 | 51.53553 | -8.00960 | 15158 ft | 383 kts | 129° |
| 2026-05-06 13:05 | 51.51902 | -7.97579 | 15664 ft | 387 kts | 128° |
| 2026-05-06 13:05 | 51.50219 | -7.94124 | 16143 ft | 390 kts | 129° |
| 2026-05-06 13:06 | 51.48535 | -7.90691 | 16625 ft | 393 kts | 129° |
| 2026-05-06 13:06 | 51.46832 | -7.87244 | 17101 ft | 396 kts | 129° |
| 2026-05-06 13:06 | 51.45117 | -7.83788 | 17564 ft | 399 kts | 129° |
| 2026-05-06 13:06 | 51.43372 | -7.80287 | 18020 ft | 402 kts | 129° |
| 2026-05-06 13:07 | 51.41626 | -7.76791 | 18460 ft | 404 kts | 129° |
| 2026-05-06 13:07 | 51.39864 | -7.73274 | 18880 ft | 407 kts | 129° |
| 2026-05-06 13:07 | 51.38070 | -7.69696 | 19301 ft | 410 kts | 129° |
| 2026-05-06 13:07 | 51.36269 | -7.66110 | 19715 ft | 413 kts | 129° |
| 2026-05-06 13:08 | 51.34465 | -7.62527 | 20095 ft | 415 kts | 129° |
| 2026-05-06 13:08 | 51.32643 | -7.58911 | 20477 ft | 418 kts | 129° |
| 2026-05-06 13:08 | 51.30825 | -7.55311 | 20862 ft | 420 kts | 129° |
| 2026-05-06 13:08 | 51.28969 | -7.51639 | 21240 ft | 423 kts | 129° |
| 2026-05-06 13:09 | 51.27125 | -7.47997 | 21605 ft | 426 kts | 129° |
| 2026-05-06 13:09 | 51.25230 | -7.44259 | 21974 ft | 428 kts | 129° |
| 2026-05-06 13:09 | 51.23359 | -7.40573 | 22329 ft | 431 kts | 129° |
| 2026-05-06 13:09 | 51.21450 | -7.36819 | 22682 ft | 433 kts | 129° |
| 2026-05-06 13:10 | 51.19558 | -7.33103 | 23020 ft | 435 kts | 130° |
| 2026-05-06 13:10 | 51.17636 | -7.29334 | 23356 ft | 438 kts | 130° |
| 2026-05-06 13:10 | 51.15702 | -7.25548 | 23686 ft | 440 kts | 130° |
| 2026-05-06 13:10 | 51.13783 | -7.21796 | 24007 ft | 442 kts | 130° |
| 2026-05-06 13:11 | 51.11830 | -7.17983 | 24322 ft | 445 kts | 130° |
| 2026-05-06 13:11 | 51.09857 | -7.14137 | 24632 ft | 447 kts | 130° |
| 2026-05-06 13:11 | 51.07894 | -7.10317 | 24934 ft | 449 kts | 130° |
| 2026-05-06 13:11 | 51.05906 | -7.06454 | 25240 ft | 451 kts | 130° |
| 2026-05-06 13:12 | 51.03901 | -7.02561 | 25555 ft | 453 kts | 130° |
| 2026-05-06 13:12 | 51.01918 | -6.98719 | 25867 ft | 455 kts | 130° |
| 2026-05-06 13:12 | 50.99891 | -6.94798 | 26179 ft | 457 kts | 130° |
| 2026-05-06 13:12 | 50.97875 | -6.90902 | 26480 ft | 459 kts | 130° |
| 2026-05-06 13:13 | 50.95842 | -6.86982 | 26775 ft | 461 kts | 130° |
| 2026-05-06 13:13 | 50.93770 | -6.82991 | 27068 ft | 463 kts | 130° |
| 2026-05-06 13:13 | 50.91754 | -6.79114 | 27347 ft | 465 kts | 130° |
| 2026-05-06 13:13 | 50.89693 | -6.75158 | 27643 ft | 466 kts | 130° |
| 2026-05-06 13:14 | 50.87629 | -6.71201 | 27999 ft | 465 kts | 130° |
| 2026-05-06 13:14 | 50.85588 | -6.67292 | 28360 ft | 464 kts | 130° |
| 2026-05-06 13:14 | 50.83511 | -6.63323 | 28708 ft | 463 kts | 130° |
| 2026-05-06 13:14 | 50.81481 | -6.59448 | 29049 ft | 462 kts | 130° |
| 2026-05-06 13:15 | 50.79424 | -6.55529 | 29414 ft | 461 kts | 130° |
| 2026-05-06 13:15 | 50.77387 | -6.51653 | 29776 ft | 460 kts | 130° |
| 2026-05-06 13:15 | 50.75357 | -6.47797 | 30159 ft | 459 kts | 130° |
| 2026-05-06 13:15 | 50.73308 | -6.43911 | 30549 ft | 458 kts | 130° |
| 2026-05-06 13:16 | 50.71288 | -6.40084 | 30929 ft | 457 kts | 130° |
| 2026-05-06 13:16 | 50.69253 | -6.36235 | 31310 ft | 456 kts | 130° |
| 2026-05-06 13:16 | 50.67226 | -6.32407 | 31650 ft | 456 kts | 131° |
| 2026-05-06 13:16 | 50.65177 | -6.28544 | 31945 ft | 457 kts | 131° |
| 2026-05-06 13:17 | 50.63166 | -6.24759 | 32203 ft | 457 kts | 131° |
| 2026-05-06 13:17 | 50.61105 | -6.20884 | 32460 ft | 458 kts | 131° |
| 2026-05-06 13:17 | 50.59056 | -6.17038 | 32713 ft | 459 kts | 131° |
| 2026-05-06 13:17 | 50.57020 | -6.13221 | 32949 ft | 460 kts | 131° |
| 2026-05-06 13:18 | 50.54961 | -6.09368 | 33049 ft | 461 kts | 131° |
| 2026-05-06 13:18 | 50.50842 | -6.01676 | 33098 ft | 461 kts | 131° |
| 2026-05-06 13:19 | 50.46704 | -5.93971 | 33053 ft | 460 kts | 131° |
| 2026-05-06 13:19 | 50.42594 | -5.86341 | 33030 ft | 460 kts | 131° |
| 2026-05-06 13:20 | 50.38464 | -5.78696 | 33016 ft | 460 kts | 131° |
| 2026-05-06 13:20 | 50.34329 | -5.71063 | 33012 ft | 460 kts | 131° |
| 2026-05-06 13:21 | 50.30213 | -5.63489 | 33020 ft | 460 kts | 131° |
| 2026-05-06 13:21 | 50.26076 | -5.55899 | 33025 ft | 460 kts | 131° |
| 2026-05-06 13:22 | 50.21919 | -5.48295 | 33025 ft | 460 kts | 131° |
| 2026-05-06 13:22 | 50.17777 | -5.40739 | 33025 ft | 460 kts | 131° |
| 2026-05-06 13:23 | 50.13604 | -5.33150 | 33022 ft | 460 kts | 131° |
| 2026-05-06 13:23 | 50.09440 | -5.25599 | 33022 ft | 460 kts | 131° |
| 2026-05-06 13:24 | 50.05291 | -5.18097 | 33022 ft | 460 kts | 131° |
| 2026-05-06 13:24 | 50.01115 | -5.10569 | 33023 ft | 460 kts | 131° |
| 2026-05-06 13:25 | 49.96934 | -5.03051 | 33024 ft | 460 kts | 131° |
| 2026-05-06 13:25 | 49.92746 | -4.95544 | 33025 ft | 460 kts | 131° |
| 2026-05-06 13:26 | 49.88554 | -4.88051 | 33022 ft | 460 kts | 131° |
| 2026-05-06 13:26 | 49.84376 | -4.80607 | 33022 ft | 459 kts | 131° |
| 2026-05-06 13:27 | 49.80201 | -4.73188 | 33025 ft | 459 kts | 131° |
| 2026-05-06 13:27 | 49.76006 | -4.65752 | 33027 ft | 459 kts | 131° |
| 2026-05-06 13:28 | 49.71803 | -4.58325 | 33026 ft | 459 kts | 131° |
| 2026-05-06 13:28 | 49.67597 | -4.50913 | 33025 ft | 459 kts | 131° |
| 2026-05-06 13:29 | 49.63408 | -4.43552 | 33023 ft | 459 kts | 131° |
| 2026-05-06 13:29 | 49.59177 | -4.36141 | 33021 ft | 459 kts | 131° |
| 2026-05-06 13:30 | 49.54984 | -4.28817 | 33018 ft | 459 kts | 132° |
| 2026-05-06 13:30 | 49.50743 | -4.21429 | 33016 ft | 464 kts | 132° |
| 2026-05-06 13:31 | 49.46446 | -4.13968 | 33013 ft | 473 kts | 132° |
| 2026-05-06 13:31 | 49.42051 | -4.06358 | 33010 ft | 475 kts | 132° |
| 2026-05-06 13:32 | 49.37690 | -3.98829 | 33008 ft | 475 kts | 132° |
| 2026-05-06 13:32 | 49.33284 | -3.91245 | 33005 ft | 475 kts | 132° |
| 2026-05-06 13:33 | 49.28916 | -3.83748 | 33006 ft | 475 kts | 132° |
| 2026-05-06 13:33 | 49.24508 | -3.76200 | 33005 ft | 475 kts | 131° |
| 2026-05-06 13:34 | 49.20124 | -3.68717 | 33000 ft | 475 kts | 131° |
| 2026-05-06 13:34 | 49.15721 | -3.61222 | 32998 ft | 475 kts | 131° |
| 2026-05-06 13:35 | 49.11327 | -3.53762 | 32997 ft | 474 kts | 131° |
| 2026-05-06 13:35 | 49.06910 | -3.46287 | 32996 ft | 474 kts | 131° |
| 2026-05-06 13:36 | 49.02519 | -3.38876 | 32996 ft | 474 kts | 131° |
| 2026-05-06 13:36 | 48.98098 | -3.31437 | 32994 ft | 474 kts | 132° |
| 2026-05-06 13:37 | 48.93679 | -3.24022 | 32992 ft | 474 kts | 132° |
| 2026-05-06 13:37 | 48.89239 | -3.16593 | 32992 ft | 474 kts | 132° |
| 2026-05-06 13:38 | 48.84804 | -3.09191 | 32991 ft | 474 kts | 132° |
| 2026-05-06 13:38 | 48.80394 | -3.01849 | 32990 ft | 474 kts | 132° |
| 2026-05-06 13:39 | 48.75940 | -2.94457 | 32989 ft | 474 kts | 132° |
| 2026-05-06 13:39 | 48.71518 | -2.87142 | 32986 ft | 474 kts | 132° |
| 2026-05-06 13:40 | 48.67063 | -2.79793 | 32983 ft | 474 kts | 132° |
| 2026-05-06 13:40 | 48.62623 | -2.72488 | 32980 ft | 474 kts | 131° |
| 2026-05-06 13:41 | 48.58174 | -2.65188 | 32977 ft | 473 kts | 131° |
| 2026-05-06 13:41 | 48.53719 | -2.57895 | 32974 ft | 473 kts | 131° |
| 2026-05-06 13:42 | 48.49251 | -2.50604 | 32973 ft | 473 kts | 131° |
| 2026-05-06 13:42 | 48.44807 | -2.43374 | 32972 ft | 473 kts | 131° |
| 2026-05-06 13:43 | 48.40340 | -2.36127 | 32971 ft | 473 kts | 131° |
| 2026-05-06 13:43 | 48.35874 | -2.28902 | 32970 ft | 472 kts | 132° |
| 2026-05-06 13:44 | 48.31417 | -2.21711 | 32969 ft | 472 kts | 132° |
| 2026-05-06 13:44 | 48.26938 | -2.14508 | 32970 ft | 472 kts | 132° |
| 2026-05-06 13:45 | 48.22474 | -2.07350 | 32969 ft | 472 kts | 132° |
| 2026-05-06 13:45 | 48.15760 | -1.96617 | 32969 ft | 471 kts | 132° |
| 2026-05-06 13:46 | 48.11296 | -1.89504 | 32969 ft | 471 kts | 132° |
| 2026-05-06 13:46 | 48.06794 | -1.82350 | 32968 ft | 471 kts | 132° |
| 2026-05-06 13:47 | 48.02314 | -1.75248 | 32968 ft | 471 kts | 132° |
| 2026-05-06 13:47 | 47.97832 | -1.68165 | 32967 ft | 471 kts | 132° |
| 2026-05-06 13:48 | 47.93316 | -1.61047 | 32967 ft | 471 kts | 132° |
| 2026-05-06 13:48 | 47.88829 | -1.53992 | 32966 ft | 472 kts | 132° |
| 2026-05-06 13:49 | 47.84317 | -1.46918 | 32966 ft | 472 kts | 132° |
| 2026-05-06 13:49 | 47.79789 | -1.39839 | 32966 ft | 472 kts | 132° |
| 2026-05-06 13:50 | 47.75271 | -1.32794 | 32966 ft | 472 kts | 133° |
| 2026-05-06 13:50 | 47.70761 | -1.25781 | 32966 ft | 472 kts | 133° |
| 2026-05-06 13:51 | 47.66227 | -1.18748 | 32965 ft | 472 kts | 133° |
| 2026-05-06 13:51 | 47.61693 | -1.11737 | 32965 ft | 472 kts | 133° |
| 2026-05-06 13:52 | 47.57144 | -1.04723 | 32965 ft | 473 kts | 133° |
| 2026-05-06 13:52 | 47.52585 | -0.97711 | 32964 ft | 473 kts | 133° |
| 2026-05-06 13:53 | 47.48042 | -0.90741 | 32964 ft | 474 kts | 133° |
| 2026-05-06 13:53 | 47.43458 | -0.83724 | 32963 ft | 474 kts | 133° |
| 2026-05-06 13:54 | 47.38882 | -0.76740 | 32963 ft | 474 kts | 132° |
| 2026-05-06 13:54 | 47.34300 | -0.69763 | 32963 ft | 475 kts | 132° |
| 2026-05-06 13:55 | 47.29712 | -0.62799 | 32963 ft | 475 kts | 132° |
| 2026-05-06 13:55 | 47.25132 | -0.55860 | 32962 ft | 475 kts | 132° |
| 2026-05-06 13:56 | 47.20507 | -0.48872 | 32962 ft | 476 kts | 132° |
| 2026-05-06 13:56 | 47.15883 | -0.41905 | 32961 ft | 476 kts | 132° |
| 2026-05-06 13:57 | 47.11258 | -0.34957 | 32961 ft | 476 kts | 133° |
| 2026-05-06 13:57 | 47.06636 | -0.28032 | 32960 ft | 477 kts | 133° |
| 2026-05-06 13:58 | 47.01996 | -0.21098 | 32959 ft | 477 kts | 133° |
| 2026-05-06 13:58 | 46.97373 | -0.14210 | 32958 ft | 477 kts | 133° |
| 2026-05-06 13:59 | 46.92704 | -0.07269 | 32956 ft | 477 kts | 133° |
| 2026-05-06 13:59 | 46.88045 | -0.00363 | 32954 ft | 477 kts | 133° |
| 2026-05-06 14:00 | 46.83410 | 0.06490 | 32951 ft | 477 kts | 133° |
| 2026-05-06 14:00 | 46.78747 | 0.13369 | 32888 ft | 477 kts | 133° |
| 2026-05-06 14:01 | 46.74091 | 0.20223 | 32815 ft | 474 kts | 133° |
| 2026-05-06 14:01 | 46.69488 | 0.26979 | 32854 ft | 470 kts | 134° |
| 2026-05-06 14:02 | 46.64872 | 0.33729 | 32921 ft | 469 kts | 134° |
| 2026-05-06 14:02 | 46.60265 | 0.40454 | 32936 ft | 469 kts | 134° |
| 2026-05-06 14:03 | 46.55684 | 0.47126 | 32939 ft | 469 kts | 134° |
| 2026-05-06 14:03 | 46.51063 | 0.53838 | 32937 ft | 469 kts | 134° |
| 2026-05-06 14:04 | 46.46476 | 0.60481 | 32934 ft | 469 kts | 134° |
| 2026-05-06 14:04 | 46.41856 | 0.67156 | 32933 ft | 469 kts | 135° |
| 2026-05-06 14:05 | 46.37260 | 0.73778 | 32931 ft | 469 kts | 135° |
| 2026-05-06 14:05 | 46.32623 | 0.80442 | 32929 ft | 469 kts | 135° |
| 2026-05-06 14:06 | 46.28003 | 0.87067 | 32926 ft | 469 kts | 135° |
| 2026-05-06 14:06 | 46.23382 | 0.93676 | 32921 ft | 469 kts | 135° |
| 2026-05-06 14:07 | 46.18776 | 1.00249 | 32911 ft | 469 kts | 135° |
| 2026-05-06 14:07 | 46.14144 | 1.06841 | 32899 ft | 468 kts | 135° |
| 2026-05-06 14:08 | 46.09491 | 1.13447 | 32890 ft | 468 kts | 135° |
| 2026-05-06 14:08 | 46.04875 | 1.19984 | 32884 ft | 468 kts | 135° |
| 2026-05-06 14:09 | 46.00244 | 1.26527 | 32878 ft | 468 kts | 135° |
| 2026-05-06 14:09 | 45.95585 | 1.33092 | 32862 ft | 469 kts | 136° |
| 2026-05-06 14:10 | 45.90936 | 1.39631 | 32846 ft | 470 kts | 136° |
| 2026-05-06 14:10 | 45.86261 | 1.46188 | 32859 ft | 471 kts | 136° |
| 2026-05-06 14:11 | 45.81575 | 1.52737 | 32879 ft | 471 kts | 136° |
| 2026-05-06 14:11 | 45.76899 | 1.59257 | 32886 ft | 471 kts | 136° |
| 2026-05-06 14:12 | 45.72192 | 1.65808 | 32890 ft | 470 kts | 137° |
| 2026-05-06 14:12 | 45.67530 | 1.72278 | 32894 ft | 470 kts | 137° |
| 2026-05-06 14:13 | 45.62842 | 1.78771 | 32899 ft | 470 kts | 137° |
| 2026-05-06 14:13 | 45.58146 | 1.85259 | 32906 ft | 470 kts | 137° |
| 2026-05-06 14:14 | 45.53462 | 1.91717 | 32859 ft | 470 kts | 137° |
| 2026-05-06 14:14 | 45.48774 | 1.98168 | 32678 ft | 470 kts | 137° |
| 2026-05-06 14:15 | 45.44041 | 2.04662 | 32592 ft | 470 kts | 137° |
| 2026-05-06 14:15 | 45.39350 | 2.11079 | 32665 ft | 471 kts | 137° |
| 2026-05-06 14:16 | 45.34631 | 2.17526 | 32787 ft | 470 kts | 137° |
| 2026-05-06 14:16 | 45.29901 | 2.23967 | 32886 ft | 470 kts | 138° |
| 2026-05-06 14:17 | 45.25203 | 2.30345 | 32924 ft | 470 kts | 138° |
| 2026-05-06 14:17 | 45.20470 | 2.36750 | 32928 ft | 470 kts | 139° |
| 2026-05-06 14:18 | 45.15752 | 2.43122 | 32931 ft | 470 kts | 139° |
| 2026-05-06 14:18 | 45.11032 | 2.49484 | 32939 ft | 470 kts | 139° |
| 2026-05-06 14:19 | 45.06278 | 2.55878 | 32948 ft | 470 kts | 139° |
| 2026-05-06 14:19 | 45.01551 | 2.62221 | 32941 ft | 470 kts | 139° |
| 2026-05-06 14:20 | 44.96830 | 2.68542 | 32896 ft | 470 kts | 140° |
| 2026-05-06 14:20 | 44.92074 | 2.74894 | 32871 ft | 470 kts | 141° |
| 2026-05-06 14:21 | 44.87342 | 2.81197 | 32890 ft | 470 kts | 141° |
| 2026-05-06 14:21 | 44.82565 | 2.87545 | 32925 ft | 470 kts | 141° |
| 2026-05-06 14:22 | 44.77839 | 2.93814 | 32928 ft | 470 kts | 141° |
| 2026-05-06 14:22 | 44.73069 | 3.00124 | 32889 ft | 470 kts | 141° |
| 2026-05-06 14:23 | 44.68313 | 3.06402 | 32909 ft | 469 kts | 141° |
| 2026-05-06 14:23 | 44.63556 | 3.12665 | 32954 ft | 469 kts | 141° |
| 2026-05-06 14:24 | 44.58820 | 3.18873 | 32948 ft | 469 kts | 142° |
| 2026-05-06 14:24 | 44.54034 | 3.25088 | 32924 ft | 468 kts | 142° |
| 2026-05-06 14:25 | 44.49253 | 3.31285 | 32913 ft | 468 kts | 142° |
| 2026-05-06 14:25 | 44.44470 | 3.37471 | 32918 ft | 468 kts | 142° |
| 2026-05-06 14:26 | 44.39698 | 3.43631 | 32928 ft | 468 kts | 143° |
| 2026-05-06 14:26 | 44.34926 | 3.49776 | 32940 ft | 467 kts | 143° |
| 2026-05-06 14:27 | 44.30177 | 3.55879 | 32947 ft | 467 kts | 143° |
| 2026-05-06 14:27 | 44.25394 | 3.62012 | 32948 ft | 467 kts | 143° |
| 2026-05-06 14:28 | 44.20607 | 3.68135 | 32940 ft | 466 kts | 144° |
| 2026-05-06 14:28 | 44.15838 | 3.74221 | 32924 ft | 466 kts | 144° |
| 2026-05-06 14:29 | 44.11065 | 3.80297 | 32898 ft | 465 kts | 144° |
| 2026-05-06 14:29 | 44.06294 | 3.86355 | 32864 ft | 465 kts | 145° |
| 2026-05-06 14:30 | 44.01522 | 3.92399 | 32835 ft | 465 kts | 145° |
| 2026-05-06 14:30 | 43.96733 | 3.98451 | 32820 ft | 465 kts | 145° |
| 2026-05-06 14:31 | 43.91949 | 4.04485 | 32852 ft | 465 kts | 145° |
| 2026-05-06 14:31 | 43.87172 | 4.10498 | 32904 ft | 465 kts | 145° |
| 2026-05-06 14:32 | 43.82395 | 4.16497 | 32919 ft | 465 kts | 145° |
| 2026-05-06 14:32 | 43.77611 | 4.22490 | 32917 ft | 465 kts | 145° |
| 2026-05-06 14:33 | 43.72826 | 4.28474 | 32916 ft | 465 kts | 145° |
| 2026-05-06 14:33 | 43.68020 | 4.34468 | 32915 ft | 465 kts | 145° |
| 2026-05-06 14:34 | 43.63261 | 4.40390 | 32914 ft | 464 kts | 145° |
| 2026-05-06 14:34 | 43.58437 | 4.46380 | 32914 ft | 464 kts | 145° |
| 2026-05-06 14:35 | 43.53680 | 4.52276 | 32915 ft | 463 kts | 145° |
| 2026-05-06 14:35 | 43.48874 | 4.58218 | 32915 ft | 463 kts | 145° |
| 2026-05-06 14:36 | 43.44073 | 4.64141 | 32915 ft | 463 kts | 145° |
| 2026-05-06 14:36 | 43.39284 | 4.70036 | 32914 ft | 462 kts | 146° |
| 2026-05-06 14:37 | 43.34515 | 4.75894 | 32915 ft | 461 kts | 146° |
| 2026-05-06 14:37 | 43.29726 | 4.81762 | 32915 ft | 461 kts | 146° |
| 2026-05-06 14:38 | 43.24945 | 4.87607 | 32915 ft | 461 kts | 146° |
| 2026-05-06 14:38 | 43.20185 | 4.93415 | 32915 ft | 461 kts | 146° |
| 2026-05-06 14:39 | 43.15392 | 4.99248 | 32914 ft | 461 kts | 146° |
| 2026-05-06 14:39 | 43.10595 | 5.05068 | 32915 ft | 460 kts | 146° |
| 2026-05-06 14:40 | 43.05825 | 5.10839 | 32915 ft | 460 kts | 146° |
| 2026-05-06 14:40 | 43.01018 | 5.16650 | 32917 ft | 460 kts | 146° |
| 2026-05-06 14:41 | 42.96252 | 5.22400 | 32917 ft | 460 kts | 146° |
| 2026-05-06 14:41 | 42.91451 | 5.28182 | 32918 ft | 460 kts | 146° |
| 2026-05-06 14:42 | 42.86641 | 5.33963 | 32919 ft | 460 kts | 146° |
| 2026-05-06 14:42 | 42.81828 | 5.39739 | 32919 ft | 460 kts | 146° |
| 2026-05-06 14:43 | 42.77043 | 5.45469 | 32919 ft | 460 kts | 146° |
| 2026-05-06 14:43 | 42.72244 | 5.51201 | 32918 ft | 460 kts | 146° |
| 2026-05-06 14:44 | 42.67444 | 5.56919 | 32918 ft | 460 kts | 146° |
| 2026-05-06 14:45 | 42.60212 | 5.65512 | 32918 ft | 460 kts | 147° |
| 2026-05-06 14:45 | 42.55401 | 5.71212 | 32918 ft | 460 kts | 147° |
| 2026-05-06 14:46 | 42.50564 | 5.76929 | 32918 ft | 459 kts | 147° |
| 2026-05-06 14:46 | 42.45757 | 5.82599 | 32918 ft | 460 kts | 147° |
| 2026-05-06 14:47 | 42.40951 | 5.88258 | 32918 ft | 460 kts | 147° |
| 2026-05-06 14:47 | 42.36117 | 5.93938 | 32919 ft | 460 kts | 147° |
| 2026-05-06 14:48 | 42.31309 | 5.99579 | 32919 ft | 460 kts | 147° |
| 2026-05-06 14:48 | 42.26466 | 6.05251 | 32920 ft | 460 kts | 147° |
| 2026-05-06 14:49 | 42.21650 | 6.10877 | 32921 ft | 460 kts | 147° |
| 2026-05-06 14:49 | 42.16808 | 6.16521 | 32922 ft | 460 kts | 147° |
| 2026-05-06 14:50 | 42.11993 | 6.22120 | 32917 ft | 460 kts | 147° |
| 2026-05-06 14:50 | 42.07144 | 6.27746 | 32910 ft | 460 kts | 147° |
| 2026-05-06 14:51 | 42.02290 | 6.33368 | 32905 ft | 460 kts | 147° |
| 2026-05-06 14:51 | 41.97460 | 6.38949 | 32904 ft | 460 kts | 147° |
| 2026-05-06 14:52 | 41.92614 | 6.44535 | 32906 ft | 460 kts | 147° |
| 2026-05-06 14:52 | 41.87743 | 6.50138 | 32910 ft | 460 kts | 146° |
| 2026-05-06 14:53 | 41.82892 | 6.55712 | 32914 ft | 460 kts | 146° |
| 2026-05-06 14:53 | 41.78049 | 6.61264 | 32916 ft | 460 kts | 146° |
| 2026-05-06 14:54 | 41.73172 | 6.66842 | 32915 ft | 460 kts | 147° |
| 2026-05-06 14:54 | 41.68337 | 6.72361 | 32917 ft | 460 kts | 147° |
| 2026-05-06 14:55 | 41.63463 | 6.77911 | 32920 ft | 460 kts | 147° |
| 2026-05-06 14:55 | 41.58577 | 6.83465 | 32922 ft | 460 kts | 147° |
| 2026-05-06 14:56 | 41.53721 | 6.88973 | 32924 ft | 460 kts | 147° |
| 2026-05-06 14:56 | 41.48832 | 6.94505 | 32926 ft | 460 kts | 147° |
| 2026-05-06 14:57 | 41.43991 | 6.99974 | 32930 ft | 460 kts | 147° |
| 2026-05-06 14:57 | 41.39103 | 7.05485 | 32937 ft | 461 kts | 147° |
| 2026-05-06 14:58 | 41.34211 | 7.10988 | 32942 ft | 461 kts | 147° |
| 2026-05-06 14:58 | 41.29302 | 7.16499 | 32944 ft | 461 kts | 147° |
| 2026-05-06 14:59 | 41.24419 | 7.21971 | 32945 ft | 460 kts | 147° |
| 2026-05-06 14:59 | 41.19525 | 7.27443 | 32946 ft | 460 kts | 147° |
| 2026-05-06 15:00 | 41.14648 | 7.32886 | 32947 ft | 460 kts | 147° |
| 2026-05-06 15:00 | 41.09737 | 7.38353 | 32948 ft | 460 kts | 147° |
| 2026-05-06 15:01 | 41.04842 | 7.43795 | 32949 ft | 461 kts | 147° |
| 2026-05-06 15:01 | 40.99939 | 7.49225 | 32950 ft | 461 kts | 147° |
| 2026-05-06 15:02 | 40.94996 | 7.54689 | 32951 ft | 461 kts | 147° |
| 2026-05-06 15:02 | 40.90091 | 7.60103 | 32952 ft | 461 kts | 147° |
| 2026-05-06 15:03 | 40.85182 | 7.65514 | 32953 ft | 460 kts | 148° |
| 2026-05-06 15:03 | 40.80282 | 7.70907 | 32954 ft | 459 kts | 148° |
| 2026-05-06 15:04 | 40.75350 | 7.76324 | 32955 ft | 459 kts | 148° |
| 2026-05-06 15:04 | 40.70465 | 7.81672 | 32956 ft | 460 kts | 148° |
| 2026-05-06 15:05 | 40.65540 | 7.87056 | 32958 ft | 460 kts | 148° |
| 2026-05-06 15:05 | 40.60608 | 7.92438 | 32959 ft | 460 kts | 148° |
| 2026-05-06 15:06 | 40.55726 | 7.97757 | 32960 ft | 459 kts | 148° |
| 2026-05-06 15:06 | 40.50809 | 8.03105 | 32960 ft | 458 kts | 148° |
| 2026-05-06 15:07 | 40.45909 | 8.08419 | 32938 ft | 455 kts | 148° |
| 2026-05-06 15:07 | 40.41050 | 8.13678 | 32934 ft | 450 kts | 147° |
| 2026-05-06 15:08 | 40.36240 | 8.18875 | 32958 ft | 448 kts | 147° |
| 2026-05-06 15:08 | 40.31417 | 8.24077 | 32964 ft | 447 kts | 148° |
| 2026-05-06 15:09 | 40.26629 | 8.29230 | 32962 ft | 447 kts | 148° |
| 2026-05-06 15:09 | 40.21834 | 8.34380 | 32961 ft | 447 kts | 148° |
| 2026-05-06 15:10 | 40.17010 | 8.39552 | 32959 ft | 447 kts | 148° |
| 2026-05-06 15:10 | 40.12195 | 8.44707 | 32957 ft | 447 kts | 148° |
| 2026-05-06 15:11 | 40.07379 | 8.49853 | 32951 ft | 447 kts | 147° |
| 2026-05-06 15:11 | 40.02578 | 8.54974 | 32938 ft | 447 kts | 148° |
| 2026-05-06 15:12 | 39.97761 | 8.60104 | 32927 ft | 448 kts | 148° |
| 2026-05-06 15:12 | 39.92923 | 8.65246 | 32922 ft | 449 kts | 148° |
| 2026-05-06 15:13 | 39.88105 | 8.70354 | 32928 ft | 449 kts | 148° |
| 2026-05-06 15:13 | 39.83234 | 8.75509 | 32952 ft | 450 kts | 148° |
| 2026-05-06 15:14 | 39.78381 | 8.80638 | 32982 ft | 451 kts | 148° |
| 2026-05-06 15:14 | 39.73510 | 8.85778 | 32975 ft | 451 kts | 147° |
| 2026-05-06 15:15 | 39.68643 | 8.90909 | 32976 ft | 452 kts | 147° |
| 2026-05-06 15:15 | 39.63747 | 8.96057 | 32975 ft | 453 kts | 147° |
| 2026-05-06 15:16 | 39.58834 | 9.01215 | 32971 ft | 454 kts | 147° |
| 2026-05-06 15:16 | 39.53925 | 9.06357 | 32971 ft | 455 kts | 147° |
| 2026-05-06 15:17 | 39.49027 | 9.11479 | 32975 ft | 456 kts | 147° |
| 2026-05-06 15:17 | 39.44075 | 9.16648 | 32981 ft | 457 kts | 147° |
| 2026-05-06 15:18 | 39.39111 | 9.21819 | 32983 ft | 457 kts | 147° |
| 2026-05-06 15:18 | 39.34156 | 9.26971 | 32980 ft | 458 kts | 147° |
| 2026-05-06 15:19 | 39.29199 | 9.32115 | 32971 ft | 459 kts | 147° |
| 2026-05-06 15:19 | 39.24216 | 9.37280 | 32959 ft | 460 kts | 147° |
| 2026-05-06 15:20 | 39.19260 | 9.42404 | 32948 ft | 460 kts | 147° |
| 2026-05-06 15:20 | 39.14580 | 9.48196 | 32941 ft | 469 kts | 137° |
| 2026-05-06 15:21 | 39.10683 | 9.55049 | 32939 ft | 479 kts | 127° |
| 2026-05-06 15:21 | 39.07743 | 9.62812 | 32937 ft | 488 kts | 116° |
| 2026-05-06 15:22 | 39.05464 | 9.71015 | 32937 ft | 489 kts | 115° |
| 2026-05-06 15:22 | 39.03213 | 9.79289 | 32937 ft | 489 kts | 115° |
| 2026-05-06 15:23 | 39.00956 | 9.87497 | 32938 ft | 489 kts | 115° |
| 2026-05-06 15:23 | 38.98668 | 9.95748 | 32938 ft | 489 kts | 115° |
| 2026-05-06 15:24 | 38.96388 | 10.03927 | 32938 ft | 489 kts | 115° |
| 2026-05-06 15:24 | 38.94076 | 10.12185 | 32937 ft | 489 kts | 115° |
| 2026-05-06 15:25 | 38.91777 | 10.20364 | 32935 ft | 490 kts | 114° |
| 2026-05-06 15:25 | 38.89459 | 10.28584 | 32936 ft | 491 kts | 114° |
| 2026-05-06 15:26 | 38.87122 | 10.36858 | 32935 ft | 492 kts | 114° |
| 2026-05-06 15:26 | 38.84786 | 10.45105 | 32937 ft | 492 kts | 114° |
| 2026-05-06 15:27 | 38.82457 | 10.53297 | 32939 ft | 492 kts | 114° |
| 2026-05-06 15:27 | 38.80100 | 10.61559 | 32940 ft | 492 kts | 114° |
| 2026-05-06 15:28 | 38.77733 | 10.69835 | 32939 ft | 492 kts | 114° |
| 2026-05-06 15:28 | 38.75375 | 10.78050 | 32940 ft | 492 kts | 114° |
| 2026-05-06 15:29 | 38.73000 | 10.86301 | 32939 ft | 485 kts | 114° |
| 2026-05-06 15:29 | 38.70718 | 10.94223 | 32947 ft | 473 kts | 114° |
| 2026-05-06 15:30 | 38.68427 | 11.02127 | 32953 ft | 473 kts | 114° |
| 2026-05-06 15:30 | 38.66141 | 11.09988 | 32957 ft | 474 kts | 114° |
| 2026-05-06 15:31 | 38.63844 | 11.17869 | 32961 ft | 474 kts | 114° |
| 2026-05-06 15:31 | 38.61537 | 11.25764 | 32963 ft | 474 kts | 114° |
| 2026-05-06 15:32 | 38.58061 | 11.37612 | 32968 ft | 474 kts | 114° |
| 2026-05-06 15:32 | 38.55745 | 11.45479 | 32971 ft | 474 kts | 114° |
| 2026-05-06 15:33 | 38.53421 | 11.53349 | 32973 ft | 474 kts | 114° |
| 2026-05-06 15:33 | 38.51086 | 11.61237 | 32975 ft | 474 kts | 113° |
| 2026-05-06 15:34 | 38.48741 | 11.69133 | 32976 ft | 474 kts | 114° |
| 2026-05-06 15:34 | 38.46408 | 11.76965 | 32977 ft | 474 kts | 114° |
| 2026-05-06 15:35 | 38.44049 | 11.84867 | 32979 ft | 474 kts | 114° |
| 2026-05-06 15:35 | 38.41697 | 11.92716 | 32981 ft | 474 kts | 114° |
| 2026-05-06 15:36 | 38.39347 | 12.00539 | 32982 ft | 474 kts | 114° |
| 2026-05-06 15:36 | 38.36982 | 12.08391 | 32978 ft | 475 kts | 113° |
| 2026-05-06 15:37 | 38.34613 | 12.16227 | 32960 ft | 475 kts | 113° |
| 2026-05-06 15:37 | 38.32231 | 12.24087 | 32939 ft | 475 kts | 113° |
| 2026-05-06 15:38 | 38.29853 | 12.31914 | 32932 ft | 475 kts | 113° |
| 2026-05-06 15:38 | 38.27465 | 12.39748 | 32934 ft | 475 kts | 113° |
| 2026-05-06 15:39 | 38.25058 | 12.47623 | 32935 ft | 475 kts | 113° |
| 2026-05-06 15:39 | 38.22666 | 12.55429 | 32937 ft | 475 kts | 113° |
| 2026-05-06 15:40 | 38.20266 | 12.63238 | 32768 ft | 476 kts | 113° |
| 2026-05-06 15:40 | 38.19051 | 12.67186 | 32545 ft | 476 kts | 114° |
| 2026-05-06 15:40 | 38.17857 | 12.71057 | 32310 ft | 476 kts | 114° |
| 2026-05-06 15:41 | 38.16654 | 12.74953 | 32073 ft | 476 kts | 114° |
| 2026-05-06 15:41 | 38.15435 | 12.78896 | 31833 ft | 476 kts | 114° |
| 2026-05-06 15:41 | 38.14230 | 12.82787 | 31501 ft | 473 kts | 114° |
| 2026-05-06 15:41 | 38.13036 | 12.86648 | 31125 ft | 458 kts | 114° |
| 2026-05-06 15:42 | 38.11906 | 12.90303 | 30546 ft | 443 kts | 114° |
| 2026-05-06 15:42 | 38.10773 | 12.93951 | 29767 ft | 444 kts | 114° |
| 2026-05-06 15:42 | 38.09646 | 12.97562 | 29206 ft | 446 kts | 114° |
| 2026-05-06 15:42 | 38.08503 | 13.01229 | 28875 ft | 446 kts | 115° |
| 2026-05-06 15:43 | 38.07362 | 13.04883 | 28756 ft | 447 kts | 115° |
| 2026-05-06 15:43 | 38.06218 | 13.08540 | 28704 ft | 449 kts | 115° |
| 2026-05-06 15:43 | 38.05056 | 13.12251 | 28880 ft | 451 kts | 114° |
| 2026-05-06 15:43 | 38.03889 | 13.15968 | 28954 ft | 460 kts | 114° |
| 2026-05-06 15:44 | 38.02691 | 13.19774 | 28884 ft | 472 kts | 114° |
| 2026-05-06 15:44 | 38.01455 | 13.23688 | 28748 ft | 479 kts | 114° |
| 2026-05-06 15:44 | 37.99048 | 13.31348 | 28398 ft | 456 kts | 114° |
| 2026-05-06 15:45 | 37.97884 | 13.35062 | 27840 ft | 449 kts | 114° |
| 2026-05-06 15:45 | 37.96747 | 13.38677 | 27461 ft | 443 kts | 114° |
| 2026-05-06 15:45 | 37.95629 | 13.42231 | 27072 ft | 426 kts | 114° |
| 2026-05-06 15:45 | 37.94555 | 13.45644 | 26486 ft | 411 kts | 114° |
| 2026-05-06 15:46 | 37.93505 | 13.48963 | 25620 ft | 410 kts | 114° |
| 2026-05-06 15:46 | 37.92439 | 13.52323 | 25114 ft | 402 kts | 114° |
| 2026-05-06 15:46 | 37.91420 | 13.55546 | 24781 ft | 390 kts | 114° |
| 2026-05-06 15:46 | 37.90426 | 13.58683 | 24392 ft | 381 kts | 114° |
| 2026-05-06 15:47 | 37.89447 | 13.61764 | 23935 ft | 376 kts | 115° |
| 2026-05-06 15:47 | 37.88489 | 13.64779 | 23534 ft | 369 kts | 115° |
| 2026-05-06 15:47 | 37.87529 | 13.67792 | 23086 ft | 366 kts | 115° |
| 2026-05-06 15:47 | 37.86577 | 13.70780 | 22629 ft | 364 kts | 115° |
| 2026-05-06 15:48 | 37.85642 | 13.73707 | 22181 ft | 362 kts | 115° |
| 2026-05-06 15:48 | 37.84704 | 13.76644 | 21733 ft | 359 kts | 115° |
| 2026-05-06 15:48 | 37.83772 | 13.79556 | 21207 ft | 360 kts | 116° |
| 2026-05-06 15:48 | 37.82823 | 13.82513 | 20384 ft | 367 kts | 115° |
| 2026-05-06 15:49 | 37.81869 | 13.85484 | 19317 ft | 373 kts | 115° |
| 2026-05-06 15:49 | 37.80887 | 13.88541 | 18102 ft | 380 kts | 115° |
| 2026-05-06 15:49 | 37.79887 | 13.91652 | 16744 ft | 389 kts | 115° |
| 2026-05-06 15:49 | 37.78864 | 13.94828 | 15484 ft | 394 kts | 115° |
| 2026-05-06 15:50 | 37.77838 | 13.98015 | 14000 ft | 403 kts | 115° |
| 2026-05-06 15:50 | 37.76730 | 14.01436 | 12873 ft | 440 kts | 115° |
| 2026-05-06 15:50 | 37.75589 | 14.04977 | 13145 ft | 426 kts | 115° |
| 2026-05-06 15:50 | 37.74506 | 14.08359 | 13478 ft | 400 kts | 114° |
| 2026-05-06 15:51 | 37.73515 | 14.11483 | 13697 ft | 371 kts | 114° |
| 2026-05-06 15:51 | 37.72591 | 14.14419 | 13805 ft | 352 kts | 114° |
| 2026-05-06 15:51 | 37.71720 | 14.17208 | 13780 ft | 329 kts | 114° |
| 2026-05-06 15:51 | 37.70920 | 14.19802 | 13666 ft | 305 kts | 114° |
| 2026-05-06 15:52 | 37.70181 | 14.22223 | 13483 ft | 292 kts | 114° |
| 2026-05-06 15:52 | 37.69464 | 14.24598 | 13244 ft | 285 kts | 114° |
| 2026-05-06 15:52 | 37.68783 | 14.26906 | 12987 ft | 279 kts | 114° |
| 2026-05-06 15:52 | 37.68115 | 14.29168 | 12722 ft | 273 kts | 114° |
| 2026-05-06 15:53 | 37.67453 | 14.31412 | 12454 ft | 269 kts | 114° |
| 2026-05-06 15:53 | 37.66792 | 14.33578 | 12188 ft | 264 kts | 115° |
| 2026-05-06 15:53 | 37.66108 | 14.35729 | 11780 ft | 264 kts | 115° |
| 2026-05-06 15:53 | 37.65432 | 14.37850 | 11593 ft | 256 kts | 115° |
| 2026-05-06 15:54 | 37.64777 | 14.39924 | 11324 ft | 252 kts | 115° |
| 2026-05-06 15:54 | 37.64137 | 14.41952 | 11007 ft | 251 kts | 114° |
| 2026-05-06 15:54 | 37.63491 | 14.44001 | 10682 ft | 249 kts | 114° |
| 2026-05-06 15:54 | 37.62859 | 14.46007 | 10362 ft | 247 kts | 114° |
| 2026-05-06 15:55 | 37.62222 | 14.48025 | 10084 ft | 244 kts | 114° |
| 2026-05-06 15:55 | 37.61604 | 14.49983 | 9839 ft | 240 kts | 114° |
| 2026-05-06 15:55 | 37.60985 | 14.51941 | 9506 ft | 239 kts | 114° |
| 2026-05-06 15:55 | 37.60367 | 14.53892 | 9187 ft | 237 kts | 114° |
| 2026-05-06 15:56 | 37.59761 | 14.55805 | 8959 ft | 233 kts | 113° |
| 2026-05-06 15:56 | 37.59158 | 14.57713 | 8947 ft | 233 kts | 113° |
| 2026-05-06 15:56 | 37.58567 | 14.59583 | 8767 ft | 229 kts | 112° |
| 2026-05-06 15:56 | 37.58000 | 14.61468 | 8460 ft | 227 kts | 111° |
| 2026-05-06 15:57 | 37.57230 | 14.63162 | 8152 ft | 223 kts | 138° |
| 2026-05-06 15:57 | 37.55876 | 14.64077 | 7750 ft | 223 kts | 170° |
| 2026-05-06 15:57 | 37.54350 | 14.63976 | 7421 ft | 220 kts | 192° |
| 2026-05-06 15:57 | 37.52885 | 14.63439 | 7020 ft | 215 kts | 195° |
| 2026-05-06 15:58 | 37.51474 | 14.62962 | 6670 ft | 204 kts | 192° |
| 2026-05-06 15:58 | 37.50126 | 14.62619 | 6380 ft | 191 kts | 189° |
| 2026-05-06 15:58 | 37.48864 | 14.62396 | 6172 ft | 176 kts | 186° |
| 2026-05-06 15:58 | 37.47671 | 14.62331 | 5916 ft | 167 kts | 174° |
| 2026-05-06 15:59 | 37.46595 | 14.62771 | 5677 ft | 158 kts | 152° |
| 2026-05-06 15:59 | 37.45750 | 14.63632 | 5478 ft | 156 kts | 134° |
| 2026-05-06 15:59 | 37.45078 | 14.64697 | 5308 ft | 157 kts | 126° |
| 2026-05-06 15:59 | 37.44516 | 14.65883 | 5115 ft | 156 kts | 117° |
| 2026-05-06 16:00 | 37.44160 | 14.67170 | 5020 ft | 156 kts | 108° |
| 2026-05-06 16:00 | 37.43890 | 14.68496 | 5016 ft | 157 kts | 104° |
| 2026-05-06 16:00 | 37.43739 | 14.69873 | 5014 ft | 158 kts | 96° |
| 2026-05-06 16:00 | 37.43723 | 14.71243 | 5012 ft | 158 kts | 90° |
| 2026-05-06 16:01 | 37.43820 | 14.72628 | 4968 ft | 159 kts | 86° |
| 2026-05-06 16:01 | 37.43953 | 14.74011 | 4778 ft | 158 kts | 85° |
| 2026-05-06 16:01 | 37.44087 | 14.75397 | 4570 ft | 157 kts | 85° |
| 2026-05-06 16:01 | 37.44212 | 14.76754 | 4367 ft | 157 kts | 86° |
| 2026-05-06 16:02 | 37.44331 | 14.78120 | 4164 ft | 156 kts | 86° |
| 2026-05-06 16:02 | 37.44445 | 14.79475 | 3965 ft | 155 kts | 87° |
| 2026-05-06 16:02 | 37.44554 | 14.80812 | 3765 ft | 155 kts | 87° |
| 2026-05-06 16:02 | 37.44665 | 14.82164 | 3563 ft | 154 kts | 87° |
| 2026-05-06 16:03 | 37.44775 | 14.83516 | 3363 ft | 153 kts | 88° |
| 2026-05-06 16:03 | 37.44882 | 14.84839 | 3167 ft | 153 kts | 88° |
| 2026-05-06 16:03 | 37.44988 | 14.86171 | 2976 ft | 151 kts | 87° |
| 2026-05-06 16:03 | 37.45093 | 14.87487 | 2783 ft | 150 kts | 87° |
| 2026-05-06 16:04 | 37.45195 | 14.88759 | 2591 ft | 144 kts | 86° |
| 2026-05-06 16:04 | 37.45299 | 14.90010 | 2399 ft | 142 kts | 87° |
| 2026-05-06 16:04 | 37.45399 | 14.91245 | 2221 ft | 142 kts | 88° |
| 2026-05-06 16:04 | 37.45501 | 14.92469 | 2040 ft | 141 kts | 88° |
| 2026-05-06 16:05 | 37.45601 | 14.93694 | 1859 ft | 140 kts | 87° |
| 2026-05-06 16:05 | 37.45701 | 14.94917 | 1675 ft | 139 kts | 87° |
| 2026-05-06 16:05 | 37.45802 | 14.96123 | 1492 ft | 138 kts | 87° |
| 2026-05-06 16:05 | 37.45900 | 14.97309 | 1311 ft | 137 kts | 86° |
| 2026-05-06 16:06 | 37.45998 | 14.98497 | 1128 ft | 136 kts | 87° |
| 2026-05-06 16:06 | 37.46098 | 14.99676 | 954 ft | 135 kts | 86° |
| 2026-05-06 16:06 | 37.46223 | 15.00843 | 784 ft | 134 kts | 84° |
| 2026-05-06 16:06 | 37.46319 | 15.01997 | 608 ft | 132 kts | 86° |
| 2026-05-06 16:07 | 37.46392 | 15.03145 | 435 ft | 130 kts | 84° |
| 2026-05-06 16:07 | 37.46493 | 15.04282 | 275 ft | 129 kts | 84° |
| 2026-05-06 16:07 | 37.46579 | 15.05385 | 103 ft | 127 kts | 82° |
| 2026-05-06 16:07 | 37.46669 | 15.06418 | 35 ft | 82 kts | 85° |
| 2026-05-06 16:08 | 37.46690 | 15.06722 | 32 ft | 23 kts | 87° |
| 2026-05-06 16:08 | 37.46719 | 15.06883 | 33 ft | 12 kts | 58° |
| 2026-05-06 16:08 | 37.46771 | 15.06912 | 34 ft | 0 kts | 328° |
| 2026-05-06 16:09 | 37.46778 | 15.06908 | 34 ft | 2 kts | 335° |
| 2026-05-06 16:09 | 37.46805 | 15.06896 | 33 ft | 5 kts | 342° |
| 2026-05-06 16:09 | 37.46841 | 15.06874 | 33 ft | 6 kts | 316° |
| 2026-05-06 16:09 | 37.46856 | 15.06813 | 33 ft | 8 kts | 270° |
| 2026-05-06 16:10 | 37.46850 | 15.06733 | 33 ft | 9 kts | 264° |
| 2026-05-06 16:10 | 37.46843 | 15.06645 | 33 ft | 7 kts | 264° |
| 2026-05-06 16:10 | 37.46839 | 15.06584 | 34 ft | 6 kts | 272° |
| 2026-05-06 16:10 | 37.46855 | 15.06562 | 34 ft | 4 kts | 305° |
| 2026-05-06 16:11 | 37.46870 | 15.06516 | 35 ft | 7 kts | 289° |
| 2026-05-06 16:11 | 37.46894 | 15.06463 | 36 ft | 6 kts | 332° |
| 2026-05-06 16:11 | 37.46938 | 15.06463 | 36 ft | 1 kts | 18° |
| 2026-05-06 16:11 | 37.46952 | 15.06469 | 36 ft | 0 kts | 22° |
| 2026-05-06 16:12 | 37.46957 | 15.06472 | 36 ft | 0 kts | 21° |